sensor_id;sensor_type;location;lat;lon;timestamp;pressure;altitude;pressure_sealevel;temperature;humidity
10940;BME280;5522;42.696;23.494;2023-04-03T00:01:27;53680.94;;;-139.68;100.00
10940;BME280;5522;42.696;23.494;2023-04-03T00:03:54;53654.78;;;-139.68;100.00
10940;BME280;5522;42.696;23.494;2023-04-03T00:06:22;53614.59;;;-139.68;100.00
10940;BME280;5522;42.696;23.494;2023-04-03T00:08:49;53664.84;;;-139.68;100.00
10940;BME280;5522;42.696;23.494;2023-04-03T00:11:16;53666.84;;;-139.68;100.00
10940;BME280;5522;42.696;23.494;2023-04-03T00:13:43;53662.84;;;-139.68;100.00
10940;BME280;5522;42.696;23.494;2023-04-03T00:16:12;53622.63;;;-139.68;100.00
10940;BME280;5522;42.696;23.494;2023-04-03T00:18:39;53674.91;;;-139.68;100.00
10940;BME280;5522;42.696;23.494;2023-04-03T00:21:07;53670.88;;;-139.68;100.00
10940;BME280;5522;42.696;23.494;2023-04-03T00:23:34;53709.06;;;-139.68;100.00
10940;BME280;5522;42.696;23.494;2023-04-03T00:26:02;53644.75;;;-139.68;100.00
10940;BME280;5522;42.696;23.494;2023-04-03T00:28:28;53662.84;;;-139.68;100.00
10940;BME280;5522;42.696;23.494;2023-04-03T00:30:55;53640.72;;;-139.68;100.00
10940;BME280;5522;42.696;23.494;2023-04-03T00:33:23;53648.75;;;-139.68;100.00
10940;BME280;5522;42.696;23.494;2023-04-03T00:35:50;53670.88;;;-139.68;100.00
10940;BME280;5522;42.696;23.494;2023-04-03T00:38:17;53654.78;;;-139.68;100.00
10940;BME280;5522;42.696;23.494;2023-04-03T00:40:46;53662.84;;;-139.68;100.00
10940;BME280;5522;42.696;23.494;2023-04-03T00:43:15;53638.72;;;-139.68;100.00
10940;BME280;5522;42.696;23.494;2023-04-03T00:45:43;53638.72;;;-139.68;100.00
10940;BME280;5522;42.696;23.494;2023-04-03T00:48:14;53662.84;;;-139.68;100.00
10940;BME280;5522;42.696;23.494;2023-04-03T00:50:44;53600.53;;;-139.68;100.00
10940;BME280;5522;42.696;23.494;2023-04-03T00:53:14;53688.97;;;-139.68;100.00
10940;BME280;5522;42.696;23.494;2023-04-03T00:55:43;53682.94;;;-139.68;100.00
10940;BME280;5522;42.696;23.494;2023-04-03T00:58:10;53703.03;;;-139.68;100.00
10940;BME280;5522;42.696;23.494;2023-04-03T01:06:09;53684.94;;;-139.68;100.00
10940;BME280;5522;42.696;23.494;2023-04-03T01:08:36;53654.78;;;-139.68;100.00
10940;BME280;5522;42.696;23.494;2023-04-03T01:11:03;53701.03;;;-139.68;100.00
10940;BME280;5522;42.696;23.494;2023-04-03T01:13:32;53695.00;;;-139.68;100.00
10940;BME280;5522;42.696;23.494;2023-04-03T01:16:01;53640.72;;;-139.68;100.00
10940;BME280;5522;42.696;23.494;2023-04-03T01:18:28;53680.94;;;-139.68;100.00
10940;BME280;5522;42.696;23.494;2023-04-03T01:21:21;53682.94;;;-139.68;100.00
10940;BME280;5522;42.696;23.494;2023-04-03T01:24:19;53693.00;;;-139.68;100.00
10940;BME280;5522;42.696;23.494;2023-04-03T01:26:48;53648.75;;;-139.68;100.00
10940;BME280;5522;42.696;23.494;2023-04-03T01:29:16;53646.75;;;-139.68;100.00
10940;BME280;5522;42.696;23.494;2023-04-03T01:31:49;53701.03;;;-139.68;100.00
10940;BME280;5522;42.696;23.494;2023-04-03T01:34:16;53644.75;;;-139.68;100.00
10940;BME280;5522;42.696;23.494;2023-04-03T01:36:43;53701.03;;;-139.68;100.00
10940;BME280;5522;42.696;23.494;2023-04-03T01:39:10;53644.75;;;-139.68;100.00
10940;BME280;5522;42.696;23.494;2023-04-03T01:41:37;53662.84;;;-139.68;100.00
10940;BME280;5522;42.696;23.494;2023-04-03T01:44:04;53642.72;;;-139.68;100.00
10940;BME280;5522;42.696;23.494;2023-04-03T01:46:32;53626.66;;;-139.68;100.00
10940;BME280;5522;42.696;23.494;2023-04-03T01:49:00;53658.81;;;-139.68;100.00
10940;BME280;5522;42.696;23.494;2023-04-03T01:51:27;53618.63;;;-139.68;100.00
10940;BME280;5522;42.696;23.494;2023-04-03T01:53:54;53690.97;;;-139.68;100.00
10940;BME280;5522;42.696;23.494;2023-04-03T01:56:21;53686.97;;;-139.68;100.00
10940;BME280;5522;42.696;23.494;2023-04-03T01:58:48;53610.56;;;-139.68;100.00
10940;BME280;5522;42.696;23.494;2023-04-03T02:01:14;53640.72;;;-139.68;100.00
10940;BME280;5522;42.696;23.494;2023-04-03T02:03:41;53664.84;;;-139.68;100.00
10940;BME280;5522;42.696;23.494;2023-04-03T02:06:09;53666.84;;;-139.68;100.00
10940;BME280;5522;42.696;23.494;2023-04-03T02:08:36;53618.63;;;-139.68;100.00
10940;BME280;5522;42.696;23.494;2023-04-03T02:11:03;53644.75;;;-139.68;100.00
10940;BME280;5522;42.696;23.494;2023-04-03T02:13:30;53662.84;;;-139.68;100.00
10940;BME280;5522;42.696;23.494;2023-04-03T02:15:57;53656.81;;;-139.68;100.00
10940;BME280;5522;42.696;23.494;2023-04-03T02:18:24;53654.78;;;-139.68;100.00
10940;BME280;5522;42.696;23.494;2023-04-03T02:20:51;53690.97;;;-139.68;100.00
10940;BME280;5522;42.696;23.494;2023-04-03T02:23:19;53654.78;;;-139.68;100.00
10940;BME280;5522;42.696;23.494;2023-04-03T02:25:46;53699.03;;;-139.68;100.00
10940;BME280;5522;42.696;23.494;2023-04-03T02:28:14;53674.91;;;-139.68;100.00
10940;BME280;5522;42.696;23.494;2023-04-03T02:30:41;53658.81;;;-139.68;100.00
10940;BME280;5522;42.696;23.494;2023-04-03T02:33:08;53646.75;;;-139.68;100.00
10940;BME280;5522;42.696;23.494;2023-04-03T02:35:34;53634.69;;;-139.68;100.00
10940;BME280;5522;42.696;23.494;2023-04-03T02:38:02;53646.75;;;-139.68;100.00
10940;BME280;5522;42.696;23.494;2023-04-03T02:40:30;53624.63;;;-139.68;100.00
10940;BME280;5522;42.696;23.494;2023-04-03T02:42:57;53648.75;;;-139.68;100.00
10940;BME280;5522;42.696;23.494;2023-04-03T02:45:24;53650.78;;;-139.68;100.00
10940;BME280;5522;42.696;23.494;2023-04-03T02:47:51;53662.84;;;-139.68;100.00
10940;BME280;5522;42.696;23.494;2023-04-03T02:50:18;53674.91;;;-139.68;100.00
10940;BME280;5522;42.696;23.494;2023-04-03T02:52:45;53634.69;;;-139.68;100.00
10940;BME280;5522;42.696;23.494;2023-04-03T02:55:14;53632.69;;;-139.68;100.00
10940;BME280;5522;42.696;23.494;2023-04-03T02:57:42;53648.75;;;-139.68;100.00
10940;BME280;5522;42.696;23.494;2023-04-03T03:00:10;53642.72;;;-139.68;100.00
10940;BME280;5522;42.696;23.494;2023-04-03T03:02:37;53642.72;;;-139.68;100.00
10940;BME280;5522;42.696;23.494;2023-04-03T03:05:04;53640.72;;;-139.68;100.00
10940;BME280;5522;42.696;23.494;2023-04-03T03:07:31;53622.63;;;-139.68;100.00
10940;BME280;5522;42.696;23.494;2023-04-03T03:09:58;53638.72;;;-139.68;100.00
10940;BME280;5522;42.696;23.494;2023-04-03T03:12:24;53648.75;;;-139.68;100.00
10940;BME280;5522;42.696;23.494;2023-04-03T03:14:53;53650.78;;;-139.68;100.00
10940;BME280;5522;42.696;23.494;2023-04-03T03:17:19;53666.84;;;-139.68;100.00
10940;BME280;5522;42.696;23.494;2023-04-03T03:19:46;53668.88;;;-139.68;100.00
10940;BME280;5522;42.696;23.494;2023-04-03T03:22:13;53634.69;;;-139.68;100.00
10940;BME280;5522;42.696;23.494;2023-04-03T03:24:40;53620.63;;;-139.68;100.00
10940;BME280;5522;42.696;23.494;2023-04-03T03:27:07;53644.75;;;-139.68;100.00
10940;BME280;5522;42.696;23.494;2023-04-03T03:29:34;53664.84;;;-139.68;100.00
10940;BME280;5522;42.696;23.494;2023-04-03T03:32:02;53650.78;;;-139.68;100.00
10940;BME280;5522;42.696;23.494;2023-04-03T03:34:29;53654.78;;;-139.68;100.00
10940;BME280;5522;42.696;23.494;2023-04-03T03:36:55;53634.69;;;-139.68;100.00
10940;BME280;5522;42.696;23.494;2023-04-03T03:39:22;53646.75;;;-139.68;100.00
10940;BME280;5522;42.696;23.494;2023-04-03T03:41:49;53628.66;;;-139.68;100.00
10940;BME280;5522;42.696;23.494;2023-04-03T03:44:18;53674.91;;;-139.68;100.00
10940;BME280;5522;42.696;23.494;2023-04-03T03:46:45;53662.84;;;-139.68;100.00
10940;BME280;5522;42.696;23.494;2023-04-03T03:49:13;53606.56;;;-139.68;100.00
10940;BME280;5522;42.696;23.494;2023-04-03T03:51:40;53652.78;;;-139.68;100.00
10940;BME280;5522;42.696;23.494;2023-04-03T03:54:07;53666.84;;;-139.68;100.00
10940;BME280;5522;42.696;23.494;2023-04-03T03:56:35;53660.81;;;-139.68;100.00
10940;BME280;5522;42.696;23.494;2023-04-03T03:59:01;53626.66;;;-139.68;100.00
10940;BME280;5522;42.696;23.494;2023-04-03T04:01:28;53650.78;;;-139.68;100.00
10940;BME280;5522;42.696;23.494;2023-04-03T04:03:56;53658.81;;;-139.68;100.00
10940;BME280;5522;42.696;23.494;2023-04-03T04:06:24;53664.84;;;-139.68;100.00
10940;BME280;5522;42.696;23.494;2023-04-03T04:08:51;53664.84;;;-139.68;100.00
10940;BME280;5522;42.696;23.494;2023-04-03T04:11:18;53688.97;;;-139.68;100.00
10940;BME280;5522;42.696;23.494;2023-04-03T04:13:45;53666.84;;;-139.68;100.00
10940;BME280;5522;42.696;23.494;2023-04-03T04:16:12;53638.72;;;-139.68;100.00
10940;BME280;5522;42.696;23.494;2023-04-03T04:18:39;53630.66;;;-139.68;100.00
10940;BME280;5522;42.696;23.494;2023-04-03T04:21:06;53703.03;;;-139.68;100.00
10940;BME280;5522;42.696;23.494;2023-04-03T04:23:34;53646.75;;;-139.68;100.00
10940;BME280;5522;42.696;23.494;2023-04-03T04:26:01;53666.84;;;-139.68;100.00
10940;BME280;5522;42.696;23.494;2023-04-03T04:28:28;53644.75;;;-139.68;100.00
10940;BME280;5522;42.696;23.494;2023-04-03T04:30:55;53670.88;;;-139.68;100.00
10940;BME280;5522;42.696;23.494;2023-04-03T04:33:21;53638.72;;;-139.68;100.00
10940;BME280;5522;42.696;23.494;2023-04-03T04:35:48;53666.84;;;-139.68;100.00
10940;BME280;5522;42.696;23.494;2023-04-03T04:38:15;53662.84;;;-139.68;100.00
10940;BME280;5522;42.696;23.494;2023-04-03T04:40:43;53638.72;;;-139.68;100.00
10940;BME280;5522;42.696;23.494;2023-04-03T04:43:10;53690.97;;;-139.68;100.00
10940;BME280;5522;42.696;23.494;2023-04-03T04:45:39;53640.72;;;-139.68;100.00
10940;BME280;5522;42.696;23.494;2023-04-03T04:48:06;53680.94;;;-139.68;100.00
10940;BME280;5522;42.696;23.494;2023-04-03T04:50:33;53688.97;;;-139.68;100.00
10940;BME280;5522;42.696;23.494;2023-04-03T04:53:00;53656.81;;;-139.68;100.00
10940;BME280;5522;42.696;23.494;2023-04-03T04:55:27;53642.72;;;-139.68;100.00
10940;BME280;5522;42.696;23.494;2023-04-03T04:57:55;53666.84;;;-139.68;100.00
10940;BME280;5522;42.696;23.494;2023-04-03T05:00:22;53697.00;;;-139.68;100.00
10940;BME280;5522;42.696;23.494;2023-04-03T05:02:49;53662.84;;;-139.68;100.00
10940;BME280;5522;42.696;23.494;2023-04-03T05:05:16;53630.66;;;-139.68;100.00
10940;BME280;5522;42.696;23.494;2023-04-03T05:07:42;53658.81;;;-139.68;100.00
10940;BME280;5522;42.696;23.494;2023-04-03T05:10:09;53632.69;;;-139.68;100.00
10940;BME280;5522;42.696;23.494;2023-04-03T05:12:36;53684.94;;;-139.68;100.00
10940;BME280;5522;42.696;23.494;2023-04-03T05:15:06;53652.78;;;-139.68;100.00
10940;BME280;5522;42.696;23.494;2023-04-03T05:17:33;53707.06;;;-139.68;100.00
10940;BME280;5522;42.696;23.494;2023-04-03T05:20:01;53676.91;;;-139.68;100.00
10940;BME280;5522;42.696;23.494;2023-04-03T05:22:28;53676.91;;;-139.68;100.00
10940;BME280;5522;42.696;23.494;2023-04-03T05:24:55;53670.88;;;-139.68;100.00
10940;BME280;5522;42.696;23.494;2023-04-03T05:27:22;53699.03;;;-139.68;100.00
10940;BME280;5522;42.696;23.494;2023-04-03T05:29:49;53701.03;;;-139.68;100.00
10940;BME280;5522;42.696;23.494;2023-04-03T05:32:18;53654.78;;;-139.68;100.00
10940;BME280;5522;42.696;23.494;2023-04-03T05:34:44;53678.91;;;-139.68;100.00
10940;BME280;5522;42.696;23.494;2023-04-03T05:37:11;53662.84;;;-139.68;100.00
10940;BME280;5522;42.696;23.494;2023-04-03T05:39:38;53693.00;;;-139.68;100.00
10940;BME280;5522;42.696;23.494;2023-04-03T05:42:06;53697.00;;;-139.68;100.00
10940;BME280;5522;42.696;23.494;2023-04-03T05:44:33;53688.97;;;-139.68;100.00
10940;BME280;5522;42.696;23.494;2023-04-03T05:47:00;53693.00;;;-139.68;100.00
10940;BME280;5522;42.696;23.494;2023-04-03T05:49:28;53688.97;;;-139.68;100.00
10940;BME280;5522;42.696;23.494;2023-04-03T05:51:55;53695.00;;;-139.68;100.00
10940;BME280;5522;42.696;23.494;2023-04-03T05:54:24;53672.88;;;-139.68;100.00
10940;BME280;5522;42.696;23.494;2023-04-03T05:56:51;53672.88;;;-139.68;100.00
10940;BME280;5522;42.696;23.494;2023-04-03T05:59:19;53654.78;;;-139.68;100.00
10940;BME280;5522;42.696;23.494;2023-04-03T06:01:46;53705.06;;;-139.68;100.00
10940;BME280;5522;42.696;23.494;2023-04-03T06:04:14;53674.91;;;-139.68;100.00
10940;BME280;5522;42.696;23.494;2023-04-03T06:06:47;53693.00;;;-139.68;100.00
10940;BME280;5522;42.696;23.494;2023-04-03T06:09:14;53664.84;;;-139.68;100.00
10940;BME280;5522;42.696;23.494;2023-04-03T06:11:42;53717.13;;;-139.68;100.00
10940;BME280;5522;42.696;23.494;2023-04-03T06:14:09;53703.03;;;-139.68;100.00
10940;BME280;5522;42.696;23.494;2023-04-03T06:16:36;53695.00;;;-139.68;100.00
10940;BME280;5522;42.696;23.494;2023-04-03T06:19:03;53739.22;;;-139.68;100.00
10940;BME280;5522;42.696;23.494;2023-04-03T06:21:31;53727.16;;;-139.68;100.00
10940;BME280;5522;42.696;23.494;2023-04-03T06:24:00;53753.28;;;-139.68;100.00
10940;BME280;5522;42.696;23.494;2023-04-03T06:26:27;53755.31;;;-139.68;100.00
10940;BME280;5522;42.696;23.494;2023-04-03T06:28:54;53711.09;;;-139.68;100.00
10940;BME280;5522;42.696;23.494;2023-04-03T06:31:21;53717.13;;;-139.68;100.00
10940;BME280;5522;42.696;23.494;2023-04-03T06:33:48;53703.03;;;-139.68;100.00
10940;BME280;5522;42.696;23.494;2023-04-03T06:36:15;53731.19;;;-139.68;100.00
10940;BME280;5522;42.696;23.494;2023-04-03T06:38:45;53739.22;;;-139.68;100.00
10940;BME280;5522;42.696;23.494;2023-04-03T06:41:13;53682.94;;;-139.68;100.00
10940;BME280;5522;42.696;23.494;2023-04-03T06:43:41;53763.34;;;-139.68;100.00
10940;BME280;5522;42.696;23.494;2023-04-03T06:46:13;53725.16;;;-139.68;100.00
10940;BME280;5522;42.696;23.494;2023-04-03T06:48:41;53686.97;;;-139.68;100.00
10940;BME280;5522;42.696;23.494;2023-04-03T06:51:14;53705.06;;;-139.68;100.00
10940;BME280;5522;42.696;23.494;2023-04-03T06:53:41;53682.94;;;-139.68;100.00
10940;BME280;5522;42.696;23.494;2023-04-03T06:56:08;53749.28;;;-139.68;100.00
10940;BME280;5522;42.696;23.494;2023-04-03T06:58:36;53711.09;;;-139.68;100.00
10940;BME280;5522;42.696;23.494;2023-04-03T07:01:04;53719.13;;;-139.68;100.00
10940;BME280;5522;42.696;23.494;2023-04-03T07:03:31;53719.13;;;-139.68;100.00
10940;BME280;5522;42.696;23.494;2023-04-03T07:05:57;53739.22;;;-139.68;99.23
10940;BME280;5522;42.696;23.494;2023-04-03T07:08:24;53727.16;;;-139.68;97.86
10940;BME280;5522;42.696;23.494;2023-04-03T07:10:51;53763.34;;;-139.68;97.41
10940;BME280;5522;42.696;23.494;2023-04-03T07:13:18;53715.09;;;-139.68;95.11
10940;BME280;5522;42.696;23.494;2023-04-03T07:15:46;53719.13;;;-139.68;96.99
10940;BME280;5522;42.696;23.494;2023-04-03T07:18:13;53690.97;;;-139.68;95.49
10940;BME280;5522;42.696;23.494;2023-04-03T07:20:40;53747.25;;;-139.68;95.11
10940;BME280;5522;42.696;23.494;2023-04-03T07:23:07;53690.97;;;-139.68;91.29
10940;BME280;5522;42.696;23.494;2023-04-03T07:25:34;53705.06;;;-139.68;89.66
10940;BME280;5522;42.696;23.494;2023-04-03T07:28:00;53745.25;;;-139.68;90.58
10940;BME280;5522;42.696;23.494;2023-04-03T07:30:27;53739.22;;;-139.68;89.16
10940;BME280;5522;42.696;23.494;2023-04-03T07:32:55;53735.19;;;-139.68;90.01
10940;BME280;5522;42.696;23.494;2023-04-03T07:35:22;53723.13;;;-139.68;89.69
10940;BME280;5522;42.696;23.494;2023-04-03T07:37:49;53737.22;;;-139.68;86.29
10940;BME280;5522;42.696;23.494;2023-04-03T07:40:16;53735.19;;;-139.68;82.97
10940;BME280;5522;42.696;23.494;2023-04-03T07:42:43;53735.19;;;-139.68;74.96
10940;BME280;5522;42.696;23.494;2023-04-03T07:45:10;53759.31;;;-139.68;73.67
10940;BME280;5522;42.696;23.494;2023-04-03T07:47:37;53767.38;;;-139.68;63.89
10940;BME280;5522;42.696;23.494;2023-04-03T07:50:07;53719.13;;;-139.68;66.05
10940;BME280;5522;42.696;23.494;2023-04-03T07:52:36;53783.44;;;-139.68;60.79
10940;BME280;5522;42.696;23.494;2023-04-03T07:55:06;53803.56;;;-139.68;58.14
10940;BME280;5522;42.696;23.494;2023-04-03T07:57:33;53777.41;;;-139.68;56.87
10940;BME280;5522;42.696;23.494;2023-04-03T08:00:00;53719.13;;;-139.68;54.98
10940;BME280;5522;42.696;23.494;2023-04-03T08:02:31;53765.34;;;-139.68;55.27
10940;BME280;5522;42.696;23.494;2023-04-03T08:04:59;53735.19;;;-139.68;58.10
10940;BME280;5522;42.696;23.494;2023-04-03T08:07:28;53773.41;;;-139.68;57.63
10940;BME280;5522;42.696;23.494;2023-04-03T08:09:55;53749.28;;;-139.68;53.58
10940;BME280;5522;42.696;23.494;2023-04-03T08:12:22;53781.44;;;-139.68;52.47
10940;BME280;5522;42.696;23.494;2023-04-03T08:14:49;53775.41;;;-139.68;53.41
10940;BME280;5522;42.696;23.494;2023-04-03T08:17:16;53767.38;;;-139.68;57.34
10940;BME280;5522;42.696;23.494;2023-04-03T08:19:43;53785.47;;;-139.68;56.29
10940;BME280;5522;42.696;23.494;2023-04-03T08:22:10;53749.28;;;-139.68;53.69
10940;BME280;5522;42.696;23.494;2023-04-03T08:24:38;53763.34;;;-139.68;52.82
10940;BME280;5522;42.696;23.494;2023-04-03T08:27:05;53781.44;;;-139.68;55.15
10940;BME280;5522;42.696;23.494;2023-04-03T08:29:31;53775.41;;;-139.68;57.23
10940;BME280;5522;42.696;23.494;2023-04-03T08:31:58;53749.28;;;-139.68;59.09
10940;BME280;5522;42.696;23.494;2023-04-03T08:34:25;53749.28;;;-139.68;65.61
10940;BME280;5522;42.696;23.494;2023-04-03T08:36:52;53791.50;;;-139.68;59.49
10940;BME280;5522;42.696;23.494;2023-04-03T08:39:19;53763.34;;;-139.68;60.55
10940;BME280;5522;42.696;23.494;2023-04-03T08:41:47;53799.53;;;-139.68;57.36
10940;BME280;5522;42.696;23.494;2023-04-03T08:44:20;53783.44;;;-139.68;61.51
10940;BME280;5522;42.696;23.494;2023-04-03T08:47:02;53743.25;;;-139.68;54.65
10940;BME280;5522;42.696;23.494;2023-04-03T08:49:33;53745.25;;;-139.68;51.71
10940;BME280;5522;42.696;23.494;2023-04-03T08:52:05;53783.44;;;-139.68;54.45
10940;BME280;5522;42.696;23.494;2023-04-03T08:54:47;53779.44;;;-139.68;56.92
10940;BME280;5522;42.696;23.494;2023-04-03T08:57:17;53767.38;;;-139.68;60.72
10940;BME280;5522;42.696;23.494;2023-04-03T08:59:46;53761.34;;;-139.68;53.80
10940;BME280;5522;42.696;23.494;2023-04-03T09:02:24;53739.22;;;-139.68;59.29
10940;BME280;5522;42.696;23.494;2023-04-03T09:04:52;53791.50;;;-139.68;56.62
10940;BME280;5522;42.696;23.494;2023-04-03T09:07:23;53761.34;;;-139.68;49.71
10940;BME280;5522;42.696;23.494;2023-04-03T09:09:54;53797.53;;;-139.68;49.35
10940;BME280;5522;42.696;23.494;2023-04-03T09:12:27;53823.66;;;-139.68;50.01
10940;BME280;5522;42.696;23.494;2023-04-03T09:15:02;53801.53;;;-139.68;50.01
10940;BME280;5522;42.696;23.494;2023-04-03T09:17:41;53779.44;;;-139.68;50.94
10940;BME280;5522;42.696;23.494;2023-04-03T09:20:19;53787.47;;;-139.68;50.46
10940;BME280;5522;42.696;23.494;2023-04-03T09:22:50;53763.34;;;-139.68;50.53
10940;BME280;5522;42.696;23.494;2023-04-03T09:25:20;53743.25;;;-139.68;49.65
10940;BME280;5522;42.696;23.494;2023-04-03T09:27:50;53783.44;;;-139.68;50.46
10940;BME280;5522;42.696;23.494;2023-04-03T09:30:19;53797.53;;;-139.68;48.96
10940;BME280;5522;42.696;23.494;2023-04-03T09:32:47;53811.59;;;-139.68;49.26
10940;BME280;5522;42.696;23.494;2023-04-03T09:35:23;53795.50;;;-139.68;49.01
10940;BME280;5522;42.696;23.494;2023-04-03T09:37:52;53751.28;;;-139.68;50.57
10940;BME280;5522;42.696;23.494;2023-04-03T09:40:31;53757.31;;;-139.68;51.10
10940;BME280;5522;42.696;23.494;2023-04-03T09:43:04;53759.31;;;-139.68;49.56
10940;BME280;5522;42.696;23.494;2023-04-03T09:45:46;53763.34;;;-139.68;47.95
10940;BME280;5522;42.696;23.494;2023-04-03T09:48:16;53793.50;;;-139.68;50.17
10940;BME280;5522;42.696;23.494;2023-04-03T09:50:58;53787.47;;;-139.68;47.99
10940;BME280;5522;42.696;23.494;2023-04-03T09:53:36;53755.31;;;-139.68;49.00
10940;BME280;5522;42.696;23.494;2023-04-03T09:56:09;53785.47;;;-139.68;50.90
10940;BME280;5522;42.696;23.494;2023-04-03T09:58:43;53775.41;;;-139.68;49.41
10940;BME280;5522;42.696;23.494;2023-04-03T10:01:22;53777.41;;;-139.68;52.57
10940;BME280;5522;42.696;23.494;2023-04-03T10:04:03;53777.41;;;-139.68;50.67
10940;BME280;5522;42.696;23.494;2023-04-03T10:06:32;53767.38;;;-139.68;50.79
10940;BME280;5522;42.696;23.494;2023-04-03T10:09:03;53803.56;;;-139.68;48.33
10940;BME280;5522;42.696;23.494;2023-04-03T10:11:30;53779.44;;;-139.68;49.16
10940;BME280;5522;42.696;23.494;2023-04-03T10:14:00;53789.47;;;-139.68;49.93
10940;BME280;5522;42.696;23.494;2023-04-03T10:16:35;53785.47;;;-139.68;51.11
10940;BME280;5522;42.696;23.494;2023-04-03T10:19:34;53783.44;;;-139.68;53.93
10940;BME280;5522;42.696;23.494;2023-04-03T10:22:05;53815.63;;;-139.68;59.98
10940;BME280;5522;42.696;23.494;2023-04-03T10:24:47;53829.69;;;-139.68;61.63
10940;BME280;5522;42.696;23.494;2023-04-03T10:27:19;53785.47;;;-139.68;63.25
10940;BME280;5522;42.696;23.494;2023-04-03T10:29:55;53789.47;;;-139.68;57.95
10940;BME280;5522;42.696;23.494;2023-04-03T10:32:45;53799.53;;;-139.68;60.81
10940;BME280;5522;42.696;23.494;2023-04-03T10:35:20;53767.38;;;-139.68;58.96
10940;BME280;5522;42.696;23.494;2023-04-03T10:37:59;53761.34;;;-139.68;61.01
10940;BME280;5522;42.696;23.494;2023-04-03T10:40:30;53777.41;;;-139.68;59.05
10940;BME280;5522;42.696;23.494;2023-04-03T10:43:06;53775.41;;;-139.68;64.44
10940;BME280;5522;42.696;23.494;2023-04-03T10:45:49;53795.50;;;-139.68;64.12
10940;BME280;5522;42.696;23.494;2023-04-03T10:48:31;53803.56;;;-139.68;69.05
10940;BME280;5522;42.696;23.494;2023-04-03T10:51:08;53719.13;;;-139.68;67.83
10940;BME280;5522;42.696;23.494;2023-04-03T10:53:44;53765.34;;;-139.68;69.30
10940;BME280;5522;42.696;23.494;2023-04-03T10:56:17;53747.25;;;-139.68;66.29
10940;BME280;5522;42.696;23.494;2023-04-03T10:58:49;53773.41;;;-139.68;74.66
10940;BME280;5522;42.696;23.494;2023-04-03T11:01:23;53765.34;;;-139.68;84.10
10940;BME280;5522;42.696;23.494;2023-04-03T11:03:56;53775.41;;;-139.68;88.43
10940;BME280;5522;42.696;23.494;2023-04-03T11:06:26;53755.31;;;-139.68;93.95
10940;BME280;5522;42.696;23.494;2023-04-03T11:08:57;53779.44;;;-139.68;99.00
10940;BME280;5522;42.696;23.494;2023-04-03T11:11:31;53783.44;;;-139.68;100.00
10940;BME280;5522;42.696;23.494;2023-04-03T11:14:02;53759.31;;;-139.68;100.00
10940;BME280;5522;42.696;23.494;2023-04-03T11:16:35;53781.44;;;-139.68;100.00
10940;BME280;5522;42.696;23.494;2023-04-03T11:19:07;53787.47;;;-139.68;100.00
10940;BME280;5522;42.696;23.494;2023-04-03T11:21:41;53793.50;;;-139.68;100.00
10940;BME280;5522;42.696;23.494;2023-04-03T11:24:17;53777.41;;;-139.68;100.00
10940;BME280;5522;42.696;23.494;2023-04-03T11:26:49;53761.34;;;-139.68;100.00
10940;BME280;5522;42.696;23.494;2023-04-03T11:29:22;53799.53;;;-139.68;100.00
10940;BME280;5522;42.696;23.494;2023-04-03T11:32:09;53773.41;;;-139.68;100.00
10940;BME280;5522;42.696;23.494;2023-04-03T11:34:41;53757.31;;;-139.68;100.00
10940;BME280;5522;42.696;23.494;2023-04-03T11:37:16;53781.44;;;-139.68;100.00
10940;BME280;5522;42.696;23.494;2023-04-03T11:39:52;53757.31;;;-139.68;100.00
10940;BME280;5522;42.696;23.494;2023-04-03T11:42:27;53813.59;;;-139.68;100.00
10940;BME280;5522;42.696;23.494;2023-04-03T11:48:00;53801.53;;;-139.68;100.00
10940;BME280;5522;42.696;23.494;2023-04-03T11:50:45;53819.63;;;-139.68;100.00
10940;BME280;5522;42.696;23.494;2023-04-03T11:53:27;53805.56;;;-139.68;100.00
10940;BME280;5522;42.696;23.494;2023-04-03T11:56:00;53795.50;;;-139.68;100.00
10940;BME280;5522;42.696;23.494;2023-04-03T11:58:30;53809.59;;;-139.68;100.00
10940;BME280;5522;42.696;23.494;2023-04-03T12:01:00;53803.56;;;-139.68;100.00
10940;BME280;5522;42.696;23.494;2023-04-03T12:07:02;53753.28;;;-139.68;100.00
10940;BME280;5522;42.696;23.494;2023-04-03T12:09:51;53793.50;;;-139.68;100.00
10940;BME280;5522;42.696;23.494;2023-04-03T12:15:50;53813.59;;;-139.68;100.00
10940;BME280;5522;42.696;23.494;2023-04-03T12:21:18;53781.44;;;-139.68;100.00
10940;BME280;5522;42.696;23.494;2023-04-03T12:24:03;53743.25;;;-139.68;100.00
10940;BME280;5522;42.696;23.494;2023-04-03T12:26:34;53805.56;;;-139.68;100.00
10940;BME280;5522;42.696;23.494;2023-04-03T12:29:13;53775.41;;;-139.68;100.00
10940;BME280;5522;42.696;23.494;2023-04-03T12:31:48;53783.44;;;-139.68;100.00
10940;BME280;5522;42.696;23.494;2023-04-03T12:34:31;53811.59;;;-139.68;100.00
10940;BME280;5522;42.696;23.494;2023-04-03T12:37:12;53779.44;;;-139.68;100.00
10940;BME280;5522;42.696;23.494;2023-04-03T12:39:55;53775.41;;;-139.68;100.00
10940;BME280;5522;42.696;23.494;2023-04-03T12:45:41;53795.50;;;-139.68;100.00
10940;BME280;5522;42.696;23.494;2023-04-03T12:48:15;53787.47;;;-139.68;100.00
10940;BME280;5522;42.696;23.494;2023-04-03T12:50:43;53787.47;;;-139.68;100.00
10940;BME280;5522;42.696;23.494;2023-04-03T12:53:15;53771.38;;;-139.68;100.00
10940;BME280;5522;42.696;23.494;2023-04-03T12:55:45;53761.34;;;-139.68;100.00
10940;BME280;5522;42.696;23.494;2023-04-03T12:58:16;53785.47;;;-139.68;100.00
10940;BME280;5522;42.696;23.494;2023-04-03T13:00:43;53773.41;;;-139.68;100.00
10940;BME280;5522;42.696;23.494;2023-04-03T13:03:22;53807.56;;;-139.68;100.00
10940;BME280;5522;42.696;23.494;2023-04-03T13:05:50;53815.63;;;-139.68;100.00
10940;BME280;5522;42.696;23.494;2023-04-03T13:08:18;53807.56;;;-139.68;100.00